Azle, Texas
Current Conditions -  °F | °C
As of 11:52 AM on Friday 28 Nov 2014 (Local Time) from KNFW Reporting Station
Few Clouds Few Clouds  
Wind Chill: 68°   Ceiling: Unl
Heat Index: 68°   Visibility: 10mi
Dew Point: 46°   Wind: 24mph
Humidity: 45%   Direction: 200°SSW
Pressure: 30.19"   Gusts: NA
Location:  32.88°N, 97.54°W
Report Text: KNFW 281752Z 20021KT 10SM FEW022 FEW250 20/08 A3019 RMK AO2 PK WND 21028/1657 SLP206 60000 T02000078 10206 20078 58026
Loading
Personal Weather Stations






























Interactive Weather Map New forecast layout! Learn more

10-Day Weather Forecast

Advertisements
Track Severe Weather on mobile